Turkey, North Carolina
Current Conditions -  °F | °C
As of 5:35 PM on Monday 24 Nov 2014 (Local Time) from KCTZ Reporting Station
Moderate Rain Moderate Rain  
Wind Chill: 66°   Ceiling: 6500
Heat Index: 66°   Visibility: 10mi
Dew Point: 65°   Wind: 9mph
Humidity: 98%   Direction: 180°S
Pressure: 29.87"   Gusts: 16mph
Location:  34.99°N, 78.18°W
Report Text: KCTZ 242235Z AUTO 18008G14KT 150V210 10SM RA OVC065 19/19 A2987 RMK AO2 T01900186
Loading
Personal Weather Stations






























Interactive Weather Map New forecast layout! Learn more

10-Day Weather Forecast

Advertisements
Track Severe Weather on mobile